createdAt,value
2018-05-10T13:09:48.265Z,4136
2018-05-10T13:10:48.252Z,4076
2018-05-10T13:11:48.609Z,3928
2018-05-10T13:12:48.113Z,3804
2018-05-10T13:13:48.859Z,3600
2018-05-10T13:14:49.030Z,3344
2018-05-10T13:15:49.743Z,3180
2018-05-10T13:16:49.792Z,3004
2018-05-10T13:17:49.464Z,2648
2018-05-10T13:18:49.948Z,2620
2018-05-10T13:19:49.539Z,2820
2018-05-10T13:20:50.021Z,2808
2018-05-10T13:21:50.593Z,2420
2018-05-10T13:22:50.196Z,2524
2018-05-10T13:23:50.972Z,2236
2018-05-10T13:24:50.780Z,2008
2018-05-10T13:25:50.759Z,1832
2018-05-10T13:26:51.257Z,1716
2018-05-10T13:27:51.546Z,1632
2018-05-10T13:28:51.759Z,1600
2018-05-10T13:29:51.380Z,1656
2018-05-10T13:30:51.561Z,1764
2018-05-10T13:31:52.148Z,1852
2018-05-10T13:32:52.103Z,1788
2018-05-10T13:33:52.130Z,1896
2018-05-10T13:34:52.174Z,2084
2018-05-10T13:35:52.268Z,2300
2018-05-10T13:36:51.702Z,2436
2018-05-10T13:37:51.988Z,2436
2018-05-10T13:38:52.714Z,2528
2018-05-10T13:39:52.623Z,2372
2018-05-10T13:40:52.400Z,2368
2018-05-10T13:41:53.257Z,2464
2018-05-10T13:42:52.927Z,2392
2018-05-10T13:43:53.188Z,2388
2018-05-10T13:44:52.682Z,2332
2018-05-10T13:45:52.952Z,2508
2018-05-10T13:46:53.260Z,2728
2018-05-10T13:47:53.532Z,2944
2018-05-10T13:48:53.280Z,2968
2018-05-10T13:49:53.777Z,2988
2018-05-10T13:50:54.263Z,2972
2018-05-10T13:51:54.181Z,2996
2018-05-10T13:52:54.686Z,3060
2018-05-10T13:53:54.541Z,3184
2018-05-10T13:54:54.759Z,3148
2018-05-10T13:55:55.040Z,2996
2018-05-10T13:56:54.736Z,2932
2018-05-10T13:57:54.695Z,3088
2018-05-10T13:58:55.644Z,3316
2018-05-10T13:59:55.359Z,3292
2018-05-10T14:00:55.854Z,3012
2018-05-10T14:01:55.641Z,2836
2018-05-10T14:02:55.682Z,2752
2018-05-10T14:03:56.128Z,2852
2018-05-10T14:04:55.775Z,3084
2018-05-10T14:05:55.686Z,2944
2018-05-10T14:06:55.981Z,2644
2018-05-10T14:07:56.816Z,2392
2018-05-10T14:08:57.406Z,2248
2018-05-10T14:09:56.989Z,2100
2018-05-10T14:10:57.144Z,1960
2018-05-10T14:11:57.728Z,1896
2018-05-10T14:12:57.365Z,1868
2018-05-10T14:13:57.480Z,1832
2018-05-10T14:14:57.723Z,1792
2018-05-10T14:15:57.775Z,1720
2018-05-10T14:16:57.909Z,1644
2018-05-10T14:17:58.926Z,1620
2018-05-10T14:18:59.371Z,1540
2018-05-10T14:19:58.577Z,1312
2018-05-10T14:20:58.507Z,1060
2018-05-10T14:21:58.096Z,996
2018-05-10T14:22:58.365Z,944
2018-05-10T14:23:58.289Z,940
2018-05-10T14:24:58.516Z,948
2018-05-10T14:25:58.893Z,1016
2018-05-10T14:26:58.905Z,960
2018-05-10T14:27:59.326Z,828
2018-05-10T14:28:59.421Z,728
2018-05-10T14:29:59.357Z,692
2018-05-10T14:30:59.109Z,640
2018-05-10T14:31:59.705Z,596
2018-05-10T14:32:59.682Z,584
2018-05-10T14:34:00.715Z,588
2018-05-10T14:35:00.011Z,576
2018-05-10T14:35:59.915Z,556
2018-05-10T14:37:00.349Z,536
2018-05-10T14:38:00.012Z,528
2018-05-10T14:39:01.697Z,520
2018-05-10T14:40:00.832Z,512
2018-05-10T14:41:01.441Z,516
2018-05-10T14:42:01.322Z,536
2018-05-10T14:43:00.782Z,528
2018-05-10T14:44:01.051Z,540
2018-05-10T14:45:02.057Z,528
2018-05-10T14:46:02.067Z,528
2018-05-10T14:47:01.888Z,524
2018-05-10T14:48:02.315Z,512
2018-05-10T14:49:02.192Z,500
2018-05-10T14:50:04.477Z,492
2018-05-10T14:51:03.694Z,472
2018-05-10T14:52:03.114Z,472
2018-05-10T14:53:03.640Z,468
2018-05-10T14:54:04.124Z,452
2018-05-10T14:55:02.286Z,452
2018-05-10T14:56:02.290Z,444
2018-05-10T14:57:02.537Z,440
2018-05-10T14:58:02.514Z,452
2018-05-10T14:59:03.074Z,468
2018-05-10T15:00:07.518Z,500
2018-05-10T15:01:02.813Z,520
2018-05-10T15:02:03.294Z,532
2018-05-10T15:03:03.996Z,544
2018-05-10T15:04:03.110Z,564
2018-05-10T15:05:03.454Z,596
2018-05-10T15:06:03.481Z,644
2018-05-10T15:07:02.778Z,704
2018-05-10T15:08:03.269Z,728
2018-05-10T15:09:03.579Z,700
2018-05-10T15:10:03.777Z,644
2018-05-10T15:11:03.387Z,616
2018-05-10T15:12:03.148Z,608
2018-05-10T15:13:03.799Z,604
2018-05-10T15:14:03.873Z,596
2018-05-10T15:15:04.235Z,600
2018-05-10T15:16:04.495Z,604
2018-05-10T15:17:04.587Z,596
2018-05-10T15:18:05.072Z,584
2018-05-10T15:19:05.255Z,564
2018-05-10T15:20:05.806Z,572
2018-05-10T15:21:05.857Z,628
2018-05-10T15:22:05.568Z,676
2018-05-10T15:23:06.047Z,720
2018-05-10T15:24:06.458Z,740
2018-05-10T15:25:06.969Z,772
2018-05-10T15:26:07.543Z,820
2018-05-10T15:27:07.255Z,856
2018-05-10T15:28:07.417Z,912
2018-05-10T15:29:07.107Z,928
2018-05-10T15:30:07.953Z,892
2018-05-10T15:31:07.807Z,844
2018-05-10T15:32:07.461Z,820
2018-05-10T15:33:07.963Z,824
2018-05-10T15:34:07.754Z,804
2018-05-10T15:35:07.804Z,788
2018-05-10T15:36:07.019Z,728
2018-05-10T15:37:07.306Z,668
2018-05-10T15:38:07.735Z,628
2018-05-10T15:39:09.071Z,596
2018-05-10T15:40:08.082Z,572
2018-05-10T15:41:07.878Z,564
2018-05-10T15:42:08.621Z,548
2018-05-10T15:43:08.394Z,524
2018-05-10T15:44:08.507Z,492
2018-05-10T15:45:07.861Z,448
2018-05-10T15:46:08.763Z,400
2018-05-10T15:47:09.337Z,352
2018-05-10T15:48:09.239Z,324
2018-05-10T15:49:08.879Z,308
2018-05-10T15:50:10.181Z,300
2018-05-10T15:51:09.522Z,296
2018-05-10T15:52:09.606Z,296
2018-05-10T15:53:10.384Z,300
2018-05-10T15:54:10.142Z,316
2018-05-10T15:55:10.279Z,344
2018-05-10T15:56:10.184Z,360
2018-05-10T15:57:10.868Z,360
2018-05-10T15:58:10.720Z,368
2018-05-10T15:59:10.988Z,364
2018-05-10T16:00:17.074Z,340
2018-05-10T16:01:10.954Z,312
2018-05-10T16:02:12.267Z,340
2018-05-10T16:03:10.902Z,344
2018-05-10T16:04:11.133Z,284
2018-05-10T16:05:10.921Z,272
2018-05-10T16:06:12.431Z,240
2018-05-10T16:07:12.437Z,192
2018-05-10T16:08:12.245Z,156
2018-05-10T16:09:12.136Z,140
2018-05-10T16:10:12.310Z,136
2018-05-10T16:11:12.710Z,140
2018-05-10T16:12:11.904Z,144
2018-05-10T16:13:12.140Z,148
2018-05-10T16:14:12.344Z,148
2018-05-10T16:15:13.797Z,152
2018-05-10T16:16:13.194Z,148
2018-05-10T16:17:13.656Z,148
2018-05-10T16:18:13.826Z,148
2018-05-10T16:19:13.804Z,148
2018-05-10T16:20:13.703Z,160
2018-05-10T16:21:13.668Z,172
2018-05-10T16:22:12.907Z,196
2018-05-10T16:23:13.670Z,224
2018-05-10T16:24:13.818Z,256
2018-05-10T16:25:13.868Z,284
2018-05-10T16:26:14.076Z,304
2018-05-10T16:27:13.875Z,320
2018-05-10T16:28:14.176Z,344
2018-05-10T16:29:13.918Z,376
2018-05-10T16:30:14.352Z,412
2018-05-10T16:31:14.423Z,436
2018-05-10T16:32:14.274Z,456
2018-05-10T16:33:14.400Z,472
2018-05-10T16:34:14.473Z,504
2018-05-10T16:35:15.130Z,544
2018-05-10T16:36:14.267Z,584
2018-05-10T16:37:15.083Z,600
2018-05-10T16:38:15.269Z,572
2018-05-10T16:39:15.946Z,568
2018-05-10T16:40:15.627Z,564
2018-05-10T16:41:15.231Z,556
2018-05-10T16:42:16.054Z,536
2018-05-10T16:43:15.835Z,504
2018-05-10T16:44:16.179Z,488
2018-05-10T16:45:16.185Z,492
2018-05-10T16:46:16.257Z,484
2018-05-10T16:47:16.826Z,488
2018-05-10T16:48:17.019Z,488
2018-05-10T16:49:17.004Z,488
2018-05-10T16:50:17.132Z,512
2018-05-10T16:51:18.575Z,532
2018-05-10T16:52:16.888Z,536
2018-05-10T16:53:17.073Z,536
2018-05-10T16:54:17.047Z,548
2018-05-10T16:55:17.214Z,584
2018-05-10T16:56:17.662Z,608
2018-05-10T16:57:17.687Z,624
2018-05-10T16:58:18.389Z,668
2018-05-10T16:59:18.636Z,728
2018-05-10T17:00:18.609Z,784
2018-05-10T17:01:18.990Z,828
2018-05-10T17:02:18.760Z,860
2018-05-10T17:03:18.622Z,840
2018-05-10T17:04:18.927Z,840
2018-05-10T17:05:18.677Z,860
2018-05-10T17:06:20.456Z,904
2018-05-10T17:07:19.240Z,968
2018-05-10T17:08:19.526Z,1016
2018-05-10T17:09:20.188Z,1028
2018-05-10T17:10:20.208Z,1032
2018-05-10T17:11:20.262Z,948
2018-05-10T17:12:20.529Z,876
2018-05-10T17:13:20.366Z,824
2018-05-10T17:14:20.369Z,748
2018-05-10T17:15:20.411Z,656
2018-05-10T17:16:20.620Z,588
2018-05-10T17:17:20.478Z,540
2018-05-10T17:18:20.555Z,488
2018-05-10T17:19:20.880Z,444
2018-05-10T17:20:20.765Z,408
2018-05-10T17:21:21.067Z,380
2018-05-10T17:22:21.194Z,348
2018-05-10T17:23:21.675Z,312
2018-05-10T17:24:22.240Z,292
2018-05-10T17:25:22.125Z,288
2018-05-10T17:26:22.177Z,276
2018-05-10T17:27:22.246Z,264
2018-05-10T17:28:21.835Z,260
2018-05-10T17:29:22.679Z,260
2018-05-10T17:30:22.572Z,260
2018-05-10T17:31:23.191Z,264
2018-05-10T17:32:23.033Z,276
2018-05-10T17:33:23.778Z,272
2018-05-10T17:34:22.430Z,268
2018-05-10T17:35:22.968Z,276
2018-05-10T17:36:22.498Z,276
2018-05-10T17:37:22.423Z,256
2018-05-10T17:38:22.608Z,236
2018-05-10T17:39:23.023Z,224
2018-05-10T17:40:22.943Z,224
2018-05-10T17:41:22.736Z,228
2018-05-10T17:42:22.796Z,188
2018-05-10T17:43:23.619Z,168
2018-05-10T17:44:23.171Z,164
2018-05-10T17:45:22.830Z,156
2018-05-10T17:46:24.275Z,144
2018-05-10T17:47:24.139Z,140
2018-05-10T17:48:24.739Z,136
2018-05-10T17:49:24.118Z,136
2018-05-10T17:55:30.305Z,136
2018-05-10T17:56:31.532Z,124
2018-05-10T17:57:32.306Z,116
2018-05-10T17:58:34.635Z,116
2018-05-10T17:59:30.784Z,116
2018-05-10T18:00:29.680Z,112
2018-05-10T18:01:29.608Z,104
2018-05-10T18:02:30.282Z,92
2018-05-10T18:03:30.214Z,96
2018-05-10T18:04:30.049Z,92
2018-05-10T18:05:30.401Z,88
2018-05-10T18:06:30.325Z,84
2018-05-10T18:07:30.390Z,80
2018-05-10T18:08:30.399Z,76
2018-05-10T18:09:30.317Z,72
2018-05-10T18:10:31.059Z,72
2018-05-10T18:11:31.083Z,72
2018-05-10T18:12:30.867Z,72
2018-05-10T18:13:31.151Z,68
2018-05-10T18:14:31.191Z,72
2018-05-10T18:15:31.717Z,68
2018-05-10T18:16:31.767Z,64
2018-05-10T18:17:31.526Z,56
2018-05-10T18:18:31.811Z,52
2018-05-10T18:19:31.667Z,44
2018-05-10T18:20:31.619Z,44
2018-05-10T18:21:32.424Z,44
2018-05-10T18:22:32.402Z,40
2018-05-10T18:23:32.499Z,36
2018-05-10T18:24:31.980Z,36
2018-05-10T18:25:32.716Z,32
2018-05-10T18:26:32.509Z,28
2018-05-10T18:27:32.785Z,28
2018-05-10T18:28:32.333Z,24
2018-05-10T18:29:32.904Z,24
2018-05-10T18:30:32.301Z,20
2018-05-10T18:31:33.439Z,20
2018-05-10T18:32:33.557Z,16
2018-05-10T18:33:33.199Z,16
2018-05-10T18:34:33.558Z,16
2018-05-10T18:35:33.391Z,16
2018-05-10T18:36:33.650Z,12
2018-05-10T18:37:33.880Z,12
2018-05-10T18:38:33.708Z,12
2018-05-10T18:39:33.133Z,12
2018-05-10T18:40:33.506Z,8
2018-05-10T18:41:33.518Z,12
2018-05-10T18:42:33.761Z,8
2018-05-10T18:43:34.290Z,8
2018-05-10T18:44:34.061Z,8
2018-05-10T18:45:34.372Z,8
2018-05-10T18:46:35.380Z,8
2018-05-10T18:47:34.923Z,12
2018-05-10T18:48:34.956Z,8
2018-05-10T18:49:35.179Z,8
2018-05-10T18:50:35.475Z,8
2018-05-10T18:51:35.500Z,8
2018-05-10T18:52:35.286Z,8
2018-05-10T18:53:36.099Z,4
2018-05-10T18:54:36.301Z,4
2018-05-10T18:55:35.891Z,8
2018-05-10T18:56:35.910Z,4
2018-05-10T18:57:36.160Z,4
2018-05-10T18:58:36.326Z,4
2018-05-10T18:59:37.061Z,4
2018-05-10T19:00:36.557Z,4
2018-05-10T19:01:37.138Z,4
2018-05-10T19:02:37.300Z,4
2018-05-10T19:03:37.253Z,4
2018-05-10T19:04:37.460Z,4
2018-05-10T19:05:37.643Z,4
2018-05-10T19:06:38.383Z,4
2018-05-10T19:07:37.897Z,4
2018-05-10T19:08:38.400Z,4
2018-05-10T19:09:38.710Z,0
2018-05-10T19:10:38.700Z,4
2018-05-10T19:11:39.004Z,4
2018-05-10T19:12:39.316Z,4
2018-05-10T19:13:39.663Z,0
2018-05-10T19:14:39.341Z,0
2018-05-10T19:15:39.336Z,4
2018-05-10T19:16:39.419Z,4
2018-05-10T19:17:39.440Z,0
2018-05-10T19:18:39.017Z,0
2018-05-10T19:19:39.598Z,0
2018-05-10T19:20:39.320Z,0
2018-05-10T19:21:39.582Z,0
2018-05-10T19:22:39.114Z,0
2018-05-10T19:23:39.609Z,0
2018-05-10T19:24:39.104Z,0
2018-05-10T19:25:39.654Z,0
2018-05-10T19:26:40.199Z,0
2018-05-10T19:27:40.702Z,0
2018-05-10T19:28:40.947Z,0
2018-05-10T19:29:41.101Z,0
2018-05-10T19:30:41.355Z,0
2018-05-10T19:31:41.820Z,0
2018-05-10T19:32:41.876Z,0
2018-05-10T19:33:41.768Z,0
2018-05-10T19:34:42.300Z,0
2018-05-10T19:35:42.243Z,0
2018-05-10T19:36:41.714Z,0
2018-05-10T19:37:42.186Z,0
2018-05-10T19:38:42.410Z,0
2018-05-10T19:39:42.439Z,0
2018-05-10T19:40:42.714Z,0
2018-05-10T19:41:42.721Z,0
2018-05-10T19:42:42.789Z,0
2018-05-10T19:43:42.501Z,0
2018-05-10T19:44:42.542Z,0
2018-05-10T19:45:43.863Z,0
2018-05-10T19:46:43.667Z,0
2018-05-10T19:47:43.173Z,0
2018-05-10T19:48:42.936Z,0
2018-05-10T19:49:43.535Z,0
2018-05-10T19:50:43.822Z,0
2018-05-10T19:51:44.047Z,0
2018-05-10T19:52:43.566Z,0
2018-05-10T19:53:43.541Z,0
2018-05-10T19:54:45.111Z,0
2018-05-10T19:55:45.683Z,0
2018-05-10T19:56:44.574Z,0
2018-05-10T19:57:44.689Z,0
2018-05-10T19:58:44.606Z,0
2018-05-10T19:59:45.425Z,0
2018-05-10T20:00:44.720Z,0
2018-05-10T20:01:45.067Z,0
2018-05-10T20:02:45.063Z,0
2018-05-10T20:03:44.344Z,0
2018-05-10T20:04:44.954Z,0
2018-05-10T20:05:44.882Z,0
2018-05-10T20:06:44.997Z,0
2018-05-10T20:07:44.757Z,0
2018-05-10T20:08:45.277Z,0
2018-05-10T20:09:45.333Z,0
2018-05-10T20:10:45.065Z,0
2018-05-10T20:11:45.482Z,0
2018-05-10T20:12:46.465Z,0
2018-05-10T20:13:46.785Z,0
2018-05-10T20:14:46.255Z,0
2018-05-10T20:15:46.979Z,0
2018-05-10T20:16:46.501Z,0
2018-05-10T20:17:47.256Z,0
2018-05-10T20:18:47.041Z,0
2018-05-10T20:19:47.282Z,0
2018-05-10T20:20:46.998Z,0
2018-05-10T20:21:47.898Z,0
2018-05-10T20:22:47.404Z,0
2018-05-10T20:23:47.447Z,0
2018-05-10T20:24:48.452Z,0
2018-05-10T20:25:48.070Z,0
2018-05-10T20:26:48.396Z,0
2018-05-10T20:27:48.362Z,0
2018-05-10T20:28:48.541Z,0
2018-05-10T20:29:48.379Z,0
2018-05-10T20:30:48.332Z,0
2018-05-10T20:31:48.818Z,0
2018-05-10T20:32:49.130Z,0
2018-05-10T20:33:49.032Z,0
2018-05-10T20:34:49.097Z,0
2018-05-10T20:35:49.131Z,0
2018-05-10T20:36:49.706Z,0
2018-05-10T20:37:49.429Z,0
2018-05-10T20:38:49.881Z,0
2018-05-10T20:39:50.200Z,0
2018-05-10T20:40:50.384Z,0
2018-05-10T20:41:50.581Z,0
2018-05-10T20:42:50.896Z,0
2018-05-10T20:43:51.195Z,0
2018-05-10T20:44:51.758Z,0
2018-05-10T20:45:51.185Z,0
2018-05-10T20:46:50.948Z,0
2018-05-10T20:47:51.400Z,0
2018-05-10T20:48:51.625Z,0
2018-05-10T20:49:51.818Z,0
2018-05-10T20:50:52.339Z,0
2018-05-10T20:51:52.373Z,0
2018-05-10T20:52:51.593Z,0
2018-05-10T20:53:52.368Z,0
2018-05-10T20:54:52.515Z,0
2018-05-10T20:55:51.923Z,0
2018-05-10T20:56:52.470Z,0
2018-05-10T20:57:52.685Z,0
2018-05-10T20:58:52.891Z,0
2018-05-10T20:59:53.180Z,0
2018-05-10T21:00:54.052Z,0
2018-05-10T21:01:53.808Z,0
2018-05-10T21:02:53.265Z,0
2018-05-10T21:03:53.318Z,0
2018-05-10T21:04:53.331Z,0
2018-05-10T21:05:53.179Z,0
2018-05-10T21:06:54.481Z,0
2018-05-10T21:07:54.300Z,0
2018-05-10T21:08:54.453Z,0
2018-05-10T21:09:54.729Z,0
2018-05-10T21:10:54.619Z,0
2018-05-10T21:11:55.269Z,0
2018-05-10T21:12:55.709Z,0
2018-05-10T21:13:55.595Z,0
2018-05-10T21:14:55.664Z,0
2018-05-10T21:15:56.068Z,0
2018-05-10T21:16:56.512Z,0
2018-05-10T21:17:56.280Z,0
2018-05-10T21:18:56.443Z,0
2018-05-10T21:19:57.192Z,0
2018-05-10T21:20:57.204Z,0
2018-05-10T21:21:57.145Z,0
2018-05-10T21:22:57.925Z,0
2018-05-10T21:23:57.549Z,0
2018-05-10T21:24:58.544Z,0
2018-05-10T21:25:57.838Z,0
2018-05-10T21:26:57.834Z,0
2018-05-10T21:27:58.326Z,0
2018-05-10T21:28:58.011Z,0
2018-05-10T21:29:58.447Z,0
2018-05-10T21:30:58.521Z,0
2018-05-10T21:31:59.516Z,0
2018-05-10T21:32:59.200Z,0
2018-05-10T21:33:59.252Z,0
2018-05-10T21:34:59.248Z,0
2018-05-10T21:35:59.134Z,0
2018-05-10T21:36:59.508Z,0
2018-05-10T21:37:59.877Z,0
2018-05-10T21:38:59.778Z,0
2018-05-10T21:39:59.767Z,0
2018-05-10T21:40:59.790Z,0
2018-05-10T21:42:00.241Z,0
2018-05-10T21:43:01.150Z,0
2018-05-10T21:44:00.678Z,0
2018-05-10T21:45:01.163Z,0
2018-05-10T21:46:01.366Z,0
2018-05-10T21:47:01.579Z,0
2018-05-10T21:48:01.983Z,0
2018-05-10T21:49:01.766Z,0
2018-05-10T21:50:02.599Z,0
2018-05-10T21:51:01.736Z,0
2018-05-10T21:52:02.028Z,0
2018-05-10T21:53:02.379Z,0
2018-05-10T21:54:01.571Z,0
2018-05-10T21:55:02.860Z,0
2018-05-10T21:56:02.542Z,0
2018-05-10T21:57:02.527Z,0
2018-05-10T21:58:03.131Z,0
2018-05-10T21:59:02.861Z,0
2018-05-10T22:00:29.398Z,0
2018-05-10T22:01:05.220Z,0
2018-05-10T22:02:08.395Z,0
2018-05-10T22:03:02.914Z,0
2018-05-10T22:04:02.951Z,0
2018-05-10T22:05:03.700Z,0
2018-05-10T22:06:03.732Z,0
2018-05-10T22:07:03.498Z,0
2018-05-10T22:08:03.316Z,0
2018-05-10T22:09:04.011Z,0
2018-05-10T22:10:03.891Z,0
2018-05-10T22:11:03.628Z,0
2018-05-10T22:12:04.526Z,0
2018-05-10T22:13:04.238Z,0
2018-05-10T22:14:04.841Z,0
2018-05-10T22:15:04.874Z,0
2018-05-10T22:16:05.196Z,0
2018-05-10T22:17:05.337Z,0
2018-05-10T22:18:04.575Z,0
2018-05-10T22:19:04.879Z,0
2018-05-10T22:20:05.356Z,0
2018-05-10T22:21:05.562Z,0
2018-05-10T22:22:05.761Z,0
2018-05-10T22:23:06.363Z,0
2018-05-10T22:24:05.910Z,0
2018-05-10T22:25:05.880Z,0
2018-05-10T22:26:05.891Z,0
2018-05-10T22:27:06.165Z,0
2018-05-10T22:28:06.166Z,0
2018-05-10T22:29:06.458Z,0
2018-05-10T22:30:07.134Z,0
2018-05-10T22:31:07.353Z,0
2018-05-10T22:32:06.715Z,0
2018-05-10T22:33:06.499Z,0
2018-05-10T22:34:08.917Z,0
2018-05-10T22:35:07.385Z,0
2018-05-10T22:36:07.860Z,0
2018-05-10T22:37:07.710Z,0
2018-05-10T22:38:07.431Z,0
2018-05-10T22:39:08.251Z,0
2018-05-10T22:40:07.729Z,0
2018-05-10T22:41:08.146Z,0
2018-05-10T22:42:09.631Z,0
2018-05-10T22:43:07.995Z,0
2018-05-10T22:44:09.496Z,0
2018-05-10T22:45:09.252Z,0
2018-05-10T22:46:09.220Z,0
2018-05-10T22:47:08.507Z,0
2018-05-10T22:48:09.219Z,0
2018-05-10T22:49:09.240Z,0
2018-05-10T22:50:09.476Z,0
2018-05-10T22:51:10.031Z,0
2018-05-10T22:52:10.764Z,0
2018-05-10T22:53:10.473Z,0
2018-05-10T22:54:10.465Z,0
2018-05-10T22:55:09.945Z,0
2018-05-10T22:56:10.053Z,0
2018-05-10T22:57:10.359Z,0
2018-05-10T22:58:10.126Z,0
2018-05-10T22:59:10.327Z,0
2018-05-10T23:00:17.045Z,0
2018-05-10T23:01:17.095Z,0
2018-05-10T23:02:17.047Z,0
2018-05-10T23:03:17.077Z,0
2018-05-10T23:04:17.348Z,0
2018-05-10T23:05:17.603Z,0
2018-05-10T23:06:18.010Z,0
2018-05-10T23:07:17.620Z,0
2018-05-10T23:08:17.645Z,0
2018-05-10T23:09:17.830Z,0
2018-05-10T23:10:17.950Z,0
2018-05-10T23:11:17.630Z,0
2018-05-10T23:12:18.567Z,0
2018-05-10T23:13:18.183Z,0
2018-05-10T23:14:18.355Z,0
2018-05-10T23:15:18.608Z,0
2018-05-10T23:16:18.391Z,0
2018-05-10T23:17:18.422Z,0
2018-05-10T23:18:18.096Z,0
2018-05-10T23:19:18.282Z,0
2018-05-10T23:20:18.911Z,0
2018-05-10T23:21:18.331Z,0
2018-05-10T23:22:19.617Z,0
2018-05-10T23:23:19.222Z,0
2018-05-10T23:24:18.738Z,0
2018-05-10T23:25:19.040Z,0
2018-05-10T23:26:19.514Z,0
2018-05-10T23:27:19.014Z,0
2018-05-10T23:28:19.767Z,0
2018-05-10T23:29:19.339Z,0
2018-05-10T23:30:19.581Z,0
2018-05-10T23:31:19.606Z,0
2018-05-10T23:32:19.849Z,0
2018-05-10T23:33:20.225Z,0
2018-05-10T23:34:20.337Z,0
2018-05-10T23:35:19.869Z,0
2018-05-10T23:36:20.515Z,0
2018-05-10T23:37:20.028Z,0
2018-05-10T23:38:20.325Z,0
2018-05-10T23:39:20.956Z,0
2018-05-10T23:40:20.703Z,0
2018-05-10T23:41:20.711Z,0
2018-05-10T23:42:21.354Z,0
2018-05-10T23:43:21.347Z,0
2018-05-10T23:44:21.442Z,0
2018-05-10T23:45:21.194Z,0
2018-05-10T23:46:20.762Z,0
2018-05-10T23:47:21.708Z,0
2018-05-10T23:48:22.109Z,0
2018-05-10T23:49:21.819Z,0
2018-05-10T23:50:21.793Z,0
2018-05-10T23:51:21.597Z,0
2018-05-10T23:52:21.878Z,0
2018-05-10T23:53:21.429Z,0
2018-05-10T23:54:21.995Z,0
2018-05-10T23:55:21.469Z,0
2018-05-10T23:56:21.737Z,0
2018-05-10T23:57:22.409Z,0
2018-05-10T23:58:22.183Z,0
2018-05-10T23:59:22.635Z,0
